Weather at Graham Bell Airport / East Mesa Airport [CLOSED]

Public forecast

Using degrees Fahrenheit for public forecast. Weather courtesy of forecast.io.

Closest aviation weather report (METAR) to Graham Bell Airport / East Mesa Airport

Closest report is Albuquerque International Sunport, 4.9 nm (9.1 km) SSW.

2024/07/20 14:52 (retrieved 1 hour ago)

KABQ 201452Z 25004KT 10SM BKN180 24/14 A3029 RMK AO2 SLP164 T02440144 50007

Closest aviation forecast (TAF) to Graham Bell Airport / East Mesa Airport

Closest forecast is Albuquerque International Sunport, 4.9 nm (9.1 km) SSW.

2024/07/20 12:22 (retrieved 4 hours ago)

TAF KABQ 201120Z 2012/2112 VRB06KT P6SM SCT110 FM202100 01010KT P6SM VCSH BKN100 PROB30 2100/2104 VRB20G35KT 6SM -TSRA OVC070CB FM210400 09013G21KT P6SM VCSH BKN090